createdAt,value
2017-02-02T00:00:25.409Z,0
2017-02-02T00:01:25.456Z,0
2017-02-02T00:02:25.521Z,0
2017-02-02T00:03:25.192Z,0
2017-02-02T00:04:25.620Z,0
2017-02-02T00:05:25.690Z,0
2017-02-02T00:06:25.722Z,0
2017-02-02T00:07:25.778Z,0
2017-02-02T00:08:25.847Z,0
2017-02-02T00:09:25.915Z,0
2017-02-02T00:10:25.945Z,0
2017-02-02T00:11:26.021Z,0
2017-02-02T00:12:26.066Z,0
2017-02-02T00:13:26.132Z,0
2017-02-02T00:14:26.188Z,0
2017-02-02T00:15:26.226Z,0
2017-02-02T00:16:26.301Z,0
2017-02-02T00:17:26.354Z,0
2017-02-02T00:18:26.403Z,0
2017-02-02T00:19:26.485Z,0
2017-02-02T00:20:26.512Z,0
2017-02-02T00:21:26.571Z,0
2017-02-02T00:22:26.625Z,0
2017-02-02T00:23:26.681Z,0
2017-02-02T00:24:26.737Z,0
2017-02-02T00:25:26.799Z,0
2017-02-02T00:26:26.877Z,0
2017-02-02T00:27:26.902Z,0
2017-02-02T00:28:26.950Z,0
2017-02-02T00:29:27.020Z,0
2017-02-02T00:30:27.090Z,0
2017-02-02T00:31:27.126Z,0
2017-02-02T00:32:27.180Z,0
2017-02-02T00:33:27.234Z,0
2017-02-02T00:34:27.293Z,0
2017-02-02T00:35:27.345Z,0
2017-02-02T00:36:27.399Z,0
2017-02-02T00:37:27.461Z,0
2017-02-02T00:38:27.499Z,0
2017-02-02T00:39:27.570Z,0
2017-02-02T00:40:27.632Z,0
2017-02-02T00:41:27.678Z,0
2017-02-02T00:42:27.747Z,0
2017-02-02T00:43:27.797Z,0
2017-02-02T00:44:27.847Z,0
2017-02-02T00:45:27.893Z,0
2017-02-02T00:46:27.960Z,0
2017-02-02T00:47:28.008Z,0
2017-02-02T00:48:28.057Z,0
2017-02-02T00:49:28.114Z,0
2017-02-02T00:50:28.178Z,0
2017-02-02T00:51:28.231Z,0
2017-02-02T00:52:28.301Z,0
2017-02-02T00:53:28.344Z,0
2017-02-02T00:54:28.409Z,0
2017-02-02T00:55:28.469Z,0
2017-02-02T00:56:28.508Z,0
2017-02-02T00:57:28.186Z,0
2017-02-02T00:58:28.234Z,0
2017-02-02T00:59:28.285Z,0
2017-02-02T01:00:28.342Z,0
2017-02-02T01:01:28.779Z,0
2017-02-02T01:02:28.467Z,0
2017-02-02T01:03:28.902Z,0
2017-02-02T01:04:28.949Z,0
2017-02-02T01:05:29.020Z,0
2017-02-02T01:06:29.077Z,0
2017-02-02T01:07:29.119Z,0
2017-02-02T01:08:29.164Z,0
2017-02-02T01:09:29.238Z,0
2017-02-02T01:10:29.289Z,0
2017-02-02T01:11:29.346Z,0
2017-02-02T01:12:29.395Z,0
2017-02-02T01:13:29.463Z,0
2017-02-02T01:14:29.509Z,0
2017-02-02T01:15:29.577Z,0
2017-02-02T01:16:29.635Z,0
2017-02-02T01:17:29.670Z,0
2017-02-02T01:18:29.733Z,0
2017-02-02T01:19:29.785Z,0
2017-02-02T01:20:29.841Z,0
2017-02-02T01:21:29.910Z,0
2017-02-02T01:22:29.956Z,0
2017-02-02T01:23:30.019Z,0
2017-02-02T01:24:30.077Z,0
2017-02-02T01:25:30.132Z,0
2017-02-02T01:26:30.184Z,0
2017-02-02T01:27:30.222Z,0
2017-02-02T01:28:30.294Z,0
2017-02-02T01:29:30.340Z,0
2017-02-02T01:30:30.011Z,0
2017-02-02T01:31:30.450Z,0
2017-02-02T01:32:30.495Z,0
2017-02-02T01:33:30.551Z,0
2017-02-02T01:34:30.619Z,0
2017-02-02T01:35:30.683Z,0
2017-02-02T01:36:30.725Z,0
2017-02-02T01:37:30.782Z,0
2017-02-02T01:38:30.848Z,0
2017-02-02T01:39:30.896Z,0
2017-02-02T01:40:30.951Z,0
2017-02-02T01:41:31.015Z,0
2017-02-02T01:42:30.678Z,0
2017-02-02T01:43:31.121Z,0
2017-02-02T01:44:31.171Z,0
2017-02-02T01:45:31.235Z,0
2017-02-02T01:46:31.279Z,0
2017-02-02T01:47:31.347Z,0
2017-02-02T01:48:31.389Z,0
2017-02-02T01:49:31.454Z,0
2017-02-02T01:50:31.490Z,0
2017-02-02T01:51:31.561Z,0
2017-02-02T01:52:31.224Z,0
2017-02-02T01:53:31.654Z,0
2017-02-02T01:54:31.710Z,0
2017-02-02T01:55:31.773Z,0
2017-02-02T01:56:31.833Z,0
2017-02-02T01:57:31.876Z,0
2017-02-02T01:58:31.931Z,0
2017-02-02T01:59:31.994Z,0
2017-02-02T02:00:32.052Z,0
2017-02-02T02:01:32.097Z,0
2017-02-02T02:02:32.161Z,0
2017-02-02T02:03:32.220Z,0
2017-02-02T02:04:32.260Z,0
2017-02-02T02:05:32.336Z,0
2017-02-02T02:06:32.373Z,0
2017-02-02T02:07:32.443Z,0
2017-02-02T02:08:32.483Z,0
2017-02-02T02:09:32.538Z,0
2017-02-02T02:10:32.604Z,0
2017-02-02T02:11:32.669Z,0
2017-02-02T02:12:32.716Z,0
2017-02-02T02:13:32.775Z,0
2017-02-02T02:14:32.823Z,0
2017-02-02T02:15:32.486Z,0
2017-02-02T02:16:32.924Z,0
2017-02-02T02:17:32.991Z,0
2017-02-02T02:18:33.046Z,0
2017-02-02T02:19:33.096Z,0
2017-02-02T02:20:33.155Z,0
2017-02-02T02:21:33.221Z,0
2017-02-02T02:22:33.277Z,0
2017-02-02T02:23:33.344Z,0
2017-02-02T02:24:33.378Z,0
2017-02-02T02:25:33.429Z,0
2017-02-02T02:26:33.478Z,0
2017-02-02T02:27:33.537Z,0
2017-02-02T02:28:33.590Z,0
2017-02-02T02:29:33.646Z,0
2017-02-02T02:30:33.711Z,0
2017-02-02T02:31:33.757Z,0
2017-02-02T02:32:33.815Z,0
2017-02-02T02:33:33.883Z,0
2017-02-02T02:34:33.931Z,0
2017-02-02T02:35:33.993Z,0
2017-02-02T02:36:34.051Z,0
2017-02-02T02:37:34.096Z,0
2017-02-02T02:38:34.149Z,0
2017-02-02T02:39:34.213Z,0
2017-02-02T02:40:34.262Z,0
2017-02-02T02:41:34.314Z,0
2017-02-02T02:42:34.382Z,0
2017-02-02T02:43:34.426Z,0
2017-02-02T02:44:34.485Z,0
2017-02-02T02:45:34.527Z,0
2017-02-02T02:46:34.586Z,0
2017-02-02T02:47:34.652Z,0
2017-02-02T02:48:34.697Z,0
2017-02-02T02:49:34.758Z,0
2017-02-02T02:50:34.825Z,0
2017-02-02T02:51:34.863Z,0
2017-02-02T02:52:34.937Z,0
2017-02-02T02:53:34.973Z,0
2017-02-02T02:54:35.046Z,0
2017-02-02T02:55:35.092Z,0
2017-02-02T02:56:35.149Z,0
2017-02-02T02:57:34.820Z,0
2017-02-02T02:58:35.250Z,0
2017-02-02T02:59:35.317Z,0
2017-02-02T03:00:34.996Z,0
2017-02-02T03:01:35.416Z,0
2017-02-02T03:02:35.471Z,0
2017-02-02T03:03:35.528Z,0
2017-02-02T03:04:35.584Z,0
2017-02-02T03:05:35.648Z,0
2017-02-02T03:06:35.709Z,0
2017-02-02T03:07:35.772Z,0
2017-02-02T03:08:35.809Z,0
2017-02-02T03:09:35.865Z,0
2017-02-02T03:10:35.938Z,0
2017-02-02T03:11:35.990Z,0
2017-02-02T03:12:36.027Z,0
2017-02-02T03:13:36.088Z,0
2017-02-02T03:14:36.155Z,0
2017-02-02T03:15:36.219Z,0
2017-02-02T03:16:36.248Z,0
2017-02-02T03:17:36.314Z,0
2017-02-02T03:18:36.361Z,0
2017-02-02T03:19:36.473Z,0
2017-02-02T03:20:36.490Z,0
2017-02-02T03:21:36.526Z,0
2017-02-02T03:22:36.603Z,0
2017-02-02T03:23:36.650Z,0
2017-02-02T03:24:36.703Z,0
2017-02-02T03:25:36.759Z,0
2017-02-02T03:26:36.804Z,0
2017-02-02T03:27:36.873Z,0
2017-02-02T03:28:36.915Z,0
2017-02-02T03:29:36.977Z,0
2017-02-02T03:30:37.020Z,0
2017-02-02T03:31:37.093Z,0
2017-02-02T03:32:37.143Z,0
2017-02-02T03:33:37.185Z,0
2017-02-02T03:34:37.261Z,0
2017-02-02T03:35:37.313Z,0
2017-02-02T03:36:37.351Z,0
2017-02-02T03:37:37.421Z,0
2017-02-02T03:38:37.477Z,0
2017-02-02T03:39:37.522Z,0
2017-02-02T03:40:37.585Z,0
2017-02-02T03:41:37.628Z,0
2017-02-02T03:42:37.692Z,0
2017-02-02T03:43:37.761Z,0
2017-02-02T03:44:37.806Z,0
2017-02-02T03:45:37.870Z,0
2017-02-02T03:46:37.914Z,0
2017-02-02T03:47:37.970Z,0
2017-02-02T03:48:38.038Z,0
2017-02-02T03:49:38.084Z,0
2017-02-02T03:50:38.133Z,0
2017-02-02T03:51:38.193Z,0
2017-02-02T03:52:38.243Z,0
2017-02-02T03:53:38.300Z,0
2017-02-02T03:54:38.359Z,0
2017-02-02T03:55:38.404Z,0
2017-02-02T03:56:38.466Z,0
2017-02-02T03:57:38.514Z,0
2017-02-02T03:58:38.563Z,0
2017-02-02T03:59:38.633Z,0
2017-02-02T04:00:38.693Z,0
2017-02-02T04:01:38.744Z,0
2017-02-02T04:02:38.796Z,0
2017-02-02T04:03:38.862Z,0
2017-02-02T04:04:38.897Z,0
2017-02-02T04:05:38.964Z,0
2017-02-02T04:06:39.024Z,0
2017-02-02T04:07:39.084Z,0
2017-02-02T04:08:39.130Z,0
2017-02-02T04:09:39.171Z,0
2017-02-02T04:10:39.231Z,0
2017-02-02T04:11:39.302Z,0
2017-02-02T04:12:39.336Z,0
2017-02-02T04:13:39.405Z,0
2017-02-02T04:14:39.469Z,0
2017-02-02T04:15:39.503Z,0
2017-02-02T04:16:39.570Z,0
2017-02-02T04:17:39.615Z,0
2017-02-02T04:18:39.678Z,0
2017-02-02T04:19:39.736Z,0
2017-02-02T04:20:39.793Z,0
2017-02-02T04:21:39.853Z,0
2017-02-02T04:22:39.902Z,0
2017-02-02T04:23:39.944Z,0
2017-02-02T04:24:40.023Z,0
2017-02-02T04:25:40.069Z,0
2017-02-02T04:26:40.129Z,0
2017-02-02T04:27:40.174Z,0
2017-02-02T04:28:40.219Z,0
2017-02-02T04:29:40.288Z,0
2017-02-02T04:30:40.343Z,0
2017-02-02T04:31:40.397Z,0
2017-02-02T04:32:40.459Z,0
2017-02-02T04:33:40.505Z,0
2017-02-02T04:34:40.558Z,0
2017-02-02T04:35:40.613Z,0
2017-02-02T04:36:40.681Z,0
2017-02-02T04:37:40.730Z,0
2017-02-02T04:38:40.779Z,0
2017-02-02T04:39:40.834Z,0
2017-02-02T04:40:40.893Z,0
2017-02-02T04:41:40.937Z,0
2017-02-02T04:42:40.991Z,0
2017-02-02T04:43:41.054Z,0
2017-02-02T04:44:41.121Z,0
2017-02-02T04:45:41.155Z,0
2017-02-02T04:46:41.232Z,0
2017-02-02T04:47:41.278Z,0
2017-02-02T04:48:41.339Z,0
2017-02-02T04:49:41.380Z,0
2017-02-02T04:50:41.467Z,0
2017-02-02T04:51:41.498Z,0
2017-02-02T04:52:41.550Z,0
2017-02-02T04:53:41.616Z,0
2017-02-02T04:54:41.663Z,0
2017-02-02T04:55:41.712Z,0
2017-02-02T04:56:41.765Z,0
2017-02-02T04:57:41.829Z,0
2017-02-02T04:58:41.884Z,0
2017-02-02T04:59:41.924Z,0
2017-02-02T05:00:41.980Z,0
2017-02-02T05:01:42.045Z,0
2017-02-02T05:02:42.104Z,0
2017-02-02T05:03:42.155Z,0
2017-02-02T05:04:42.215Z,0
2017-02-02T05:05:42.255Z,0
2017-02-02T05:06:42.320Z,0
2017-02-02T05:07:42.383Z,0
2017-02-02T05:08:42.430Z,0
2017-02-02T05:09:42.479Z,0
2017-02-02T05:10:42.535Z,0
2017-02-02T05:11:42.609Z,0
2017-02-02T05:12:42.663Z,0
2017-02-02T05:13:42.710Z,0
2017-02-02T05:14:42.760Z,0
2017-02-02T05:15:42.831Z,0
2017-02-02T05:16:42.866Z,0
2017-02-02T05:17:42.921Z,0
2017-02-02T05:18:42.986Z,0
2017-02-02T05:19:43.049Z,0
2017-02-02T05:20:43.096Z,0
2017-02-02T05:21:43.150Z,0
2017-02-02T05:22:43.218Z,0
2017-02-02T05:23:43.273Z,0
2017-02-02T05:24:43.306Z,0
2017-02-02T05:25:43.375Z,0
2017-02-02T05:26:43.431Z,0
2017-02-02T05:27:43.477Z,0
2017-02-02T05:28:43.549Z,0
2017-02-02T05:29:43.586Z,0
2017-02-02T05:30:43.647Z,0
2017-02-02T05:31:43.701Z,0
2017-02-02T05:32:43.754Z,0
2017-02-02T05:33:43.820Z,0
2017-02-02T05:34:43.470Z,0
2017-02-02T05:35:43.918Z,0
2017-02-02T05:36:43.967Z,0
2017-02-02T05:37:44.036Z,0
2017-02-02T05:38:44.077Z,0
2017-02-02T05:39:44.136Z,0
2017-02-02T05:40:44.190Z,0
2017-02-02T05:41:44.251Z,0
2017-02-02T05:42:44.300Z,0
2017-02-02T05:43:44.351Z,0
2017-02-02T05:44:44.420Z,0
2017-02-02T05:45:44.469Z,0
2017-02-02T05:46:44.512Z,0
2017-02-02T05:47:44.566Z,0
2017-02-02T05:48:44.639Z,0
2017-02-02T05:49:44.699Z,0
2017-02-02T05:50:44.732Z,0
2017-02-02T05:51:44.782Z,0
2017-02-02T05:52:44.852Z,0
2017-02-02T05:53:44.915Z,0
2017-02-02T05:54:44.962Z,0
2017-02-02T05:55:45.008Z,0
2017-02-02T05:56:45.062Z,0
2017-02-02T05:57:45.123Z,0
2017-02-02T05:58:45.188Z,0
2017-02-02T05:59:45.238Z,0
2017-02-02T06:00:45.290Z,0
2017-02-02T06:01:44.959Z,0
2017-02-02T06:02:45.006Z,0
2017-02-02T06:03:45.444Z,0
2017-02-02T06:04:45.517Z,0
2017-02-02T06:05:45.565Z,0
2017-02-02T06:06:45.628Z,0
2017-02-02T06:07:45.690Z,0
2017-02-02T06:08:45.733Z,0
2017-02-02T06:09:45.798Z,0
2017-02-02T06:10:45.844Z,0
2017-02-02T06:11:45.889Z,0
2017-02-02T06:12:45.955Z,0
2017-02-02T06:13:46.047Z,0
2017-02-02T06:14:46.076Z,0
2017-02-02T06:15:46.123Z,0
2017-02-02T06:16:46.171Z,0
2017-02-02T06:17:46.216Z,0
2017-02-02T06:18:46.287Z,0
2017-02-02T06:19:46.348Z,0
2017-02-02T06:20:46.391Z,0
2017-02-02T06:21:46.459Z,0
2017-02-02T06:22:46.507Z,0
2017-02-02T06:23:46.543Z,0
2017-02-02T06:24:46.609Z,4
2017-02-02T06:25:46.658Z,4
2017-02-02T06:26:46.721Z,4
2017-02-02T06:27:46.778Z,0
2017-02-02T06:28:46.839Z,4
2017-02-02T06:29:46.888Z,4
2017-02-02T06:30:46.933Z,4
2017-02-02T06:31:46.996Z,8
2017-02-02T06:32:47.047Z,4
2017-02-02T06:33:47.108Z,8
2017-02-02T06:34:47.152Z,8
2017-02-02T06:35:47.228Z,12
2017-02-02T06:36:47.269Z,8
2017-02-02T06:37:47.332Z,12
2017-02-02T06:38:47.388Z,16
2017-02-02T06:39:47.427Z,12
2017-02-02T06:40:47.490Z,16
2017-02-02T06:41:47.553Z,16
2017-02-02T06:42:47.610Z,16
2017-02-02T06:43:47.663Z,20
2017-02-02T06:44:47.711Z,24
2017-02-02T06:45:47.753Z,24
2017-02-02T06:46:47.818Z,24
2017-02-02T06:47:47.877Z,24
2017-02-02T06:48:47.923Z,28
2017-02-02T06:49:47.982Z,28
2017-02-02T06:50:48.038Z,32
2017-02-02T06:51:48.105Z,32
2017-02-02T06:52:48.151Z,36
2017-02-02T06:53:48.203Z,36
2017-02-02T06:54:48.255Z,40
2017-02-02T06:55:48.314Z,44
2017-02-02T06:56:48.366Z,44
2017-02-02T06:57:48.423Z,48
2017-02-02T06:58:48.488Z,48
2017-02-02T06:59:48.529Z,52
2017-02-02T07:00:48.575Z,56
2017-02-02T07:01:48.634Z,64
2017-02-02T07:02:48.711Z,68
2017-02-02T07:03:48.751Z,76
2017-02-02T07:04:48.821Z,88
2017-02-02T07:05:48.871Z,96
2017-02-02T07:06:48.947Z,100
2017-02-02T07:07:48.965Z,100
2017-02-02T07:08:49.034Z,100
2017-02-02T07:09:49.091Z,108
2017-02-02T07:10:49.134Z,116
2017-02-02T07:11:49.197Z,128
2017-02-02T07:12:49.247Z,136
2017-02-02T07:13:49.297Z,144
2017-02-02T07:14:49.362Z,152
2017-02-02T07:15:49.411Z,156
2017-02-02T07:16:49.468Z,168
2017-02-02T07:17:49.515Z,172
2017-02-02T07:18:49.584Z,184
2017-02-02T07:19:49.621Z,192
2017-02-02T07:20:49.686Z,196
2017-02-02T07:21:49.744Z,204
2017-02-02T07:22:49.794Z,212
2017-02-02T07:23:49.842Z,216
2017-02-02T07:24:49.916Z,224
2017-02-02T07:25:49.953Z,232
2017-02-02T07:26:50.059Z,236
2017-02-02T07:27:50.058Z,244
2017-02-02T07:28:50.129Z,260
2017-02-02T07:29:50.195Z,268
2017-02-02T07:30:50.251Z,276
2017-02-02T07:31:50.285Z,284
2017-02-02T07:32:50.335Z,292
2017-02-02T07:33:50.408Z,300
2017-02-02T07:34:50.472Z,312
2017-02-02T07:35:50.524Z,332
2017-02-02T07:36:50.189Z,340
2017-02-02T07:37:50.635Z,352
2017-02-02T07:38:50.682Z,364
2017-02-02T07:39:50.748Z,380
2017-02-02T07:40:50.802Z,388
2017-02-02T07:41:50.846Z,392
2017-02-02T07:42:50.913Z,412
2017-02-02T07:43:50.970Z,432
2017-02-02T07:44:51.019Z,472
2017-02-02T07:45:50.692Z,540
2017-02-02T07:46:51.137Z,520
2017-02-02T07:47:51.184Z,552
2017-02-02T07:48:51.246Z,632
2017-02-02T07:49:51.285Z,544
2017-02-02T07:50:51.340Z,528
2017-02-02T07:51:51.394Z,592
2017-02-02T07:52:51.458Z,620
2017-02-02T07:53:51.527Z,652
2017-02-02T07:54:51.571Z,636
2017-02-02T07:55:51.628Z,864
2017-02-02T07:56:51.696Z,792
2017-02-02T07:57:51.729Z,892
2017-02-02T07:58:51.794Z,804
2017-02-02T07:59:51.861Z,700
2017-02-02T08:00:51.909Z,708
2017-02-02T08:01:51.952Z,736
2017-02-02T08:02:52.007Z,728
2017-02-02T08:03:52.062Z,720
2017-02-02T08:04:52.128Z,732
2017-02-02T08:05:52.182Z,740
2017-02-02T08:06:52.239Z,756
2017-02-02T08:07:52.295Z,764
2017-02-02T08:08:52.343Z,816
2017-02-02T08:09:52.404Z,792
2017-02-02T08:10:52.449Z,800
2017-02-02T08:11:52.517Z,784
2017-02-02T08:12:52.583Z,776
2017-02-02T08:13:52.638Z,756
2017-02-02T08:14:52.694Z,752
2017-02-02T08:15:52.752Z,760
2017-02-02T08:16:52.808Z,768
2017-02-02T08:17:52.883Z,760
2017-02-02T08:18:52.919Z,752
2017-02-02T08:19:52.963Z,756
2017-02-02T08:20:53.019Z,760
2017-02-02T08:21:53.075Z,772
2017-02-02T08:22:53.131Z,764
2017-02-02T08:23:53.187Z,748
2017-02-02T08:24:53.241Z,780
2017-02-02T08:25:53.287Z,792
2017-02-02T08:26:53.353Z,812
2017-02-02T08:27:53.405Z,820
2017-02-02T08:28:53.463Z,844
2017-02-02T08:29:53.529Z,844
2017-02-02T08:30:53.570Z,848
2017-02-02T08:31:53.251Z,856
2017-02-02T08:32:53.677Z,852
2017-02-02T08:33:53.743Z,868
2017-02-02T08:34:53.806Z,888
2017-02-02T08:35:53.861Z,904
2017-02-02T08:36:53.910Z,944
2017-02-02T08:37:53.961Z,1044
2017-02-02T08:38:54.015Z,1376
2017-02-02T08:39:54.065Z,1136
2017-02-02T08:40:54.133Z,1228
2017-02-02T08:41:54.184Z,1072
2017-02-02T08:42:54.253Z,1208
2017-02-02T08:43:54.297Z,1000
2017-02-02T08:44:53.964Z,1196
2017-02-02T08:45:54.025Z,1564
2017-02-02T08:46:54.075Z,1072
2017-02-02T08:47:54.139Z,1164
2017-02-02T08:48:54.589Z,1260
2017-02-02T08:49:54.643Z,1164
2017-02-02T08:50:54.679Z,2056
2017-02-02T08:51:54.742Z,1348
2017-02-02T08:52:54.406Z,1504
2017-02-02T08:53:54.864Z,1000
2017-02-02T08:54:54.901Z,1644
2017-02-02T08:55:54.977Z,1448
2017-02-02T08:56:55.012Z,1828
2017-02-02T08:57:55.084Z,1300
2017-02-02T08:58:55.134Z,1836
2017-02-02T08:59:55.185Z,1480
2017-02-02T09:00:55.233Z,1308
2017-02-02T09:01:55.306Z,1860
2017-02-02T09:02:55.343Z,1860
2017-02-02T09:03:55.408Z,1872
2017-02-02T09:04:55.467Z,1872
2017-02-02T09:05:55.510Z,1876
2017-02-02T09:06:55.567Z,1864
2017-02-02T09:07:55.643Z,1852
2017-02-02T09:08:55.696Z,1856
2017-02-02T09:09:55.742Z,1868
2017-02-02T09:10:55.791Z,1856
2017-02-02T09:11:55.855Z,1876
2017-02-02T09:12:55.916Z,1764
2017-02-02T09:13:55.978Z,1904
2017-02-02T09:14:56.016Z,1916
2017-02-02T09:15:56.091Z,1844
2017-02-02T09:16:56.136Z,1924
2017-02-02T09:17:56.190Z,1916
2017-02-02T09:18:56.235Z,1932
2017-02-02T09:19:56.293Z,1944
2017-02-02T09:20:56.366Z,1948
2017-02-02T09:21:56.415Z,1956
2017-02-02T09:22:56.462Z,1964
2017-02-02T09:23:56.526Z,1972
2017-02-02T09:24:56.587Z,1968
2017-02-02T09:25:56.636Z,1984
2017-02-02T09:26:56.695Z,2000
2017-02-02T09:27:56.743Z,2000
2017-02-02T09:28:56.809Z,2016
2017-02-02T09:29:56.867Z,2028
2017-02-02T09:30:56.919Z,2036
2017-02-02T09:31:56.979Z,2036
2017-02-02T09:32:57.031Z,2048
2017-02-02T09:33:57.087Z,2060
2017-02-02T09:34:57.146Z,2072
2017-02-02T09:35:57.198Z,2084
2017-02-02T09:36:57.249Z,2096
2017-02-02T09:37:57.307Z,2104
2017-02-02T09:38:57.379Z,2112
2017-02-02T09:39:57.425Z,2116
2017-02-02T09:40:57.488Z,2116
2017-02-02T09:41:57.541Z,2128
2017-02-02T09:42:57.583Z,2140
2017-02-02T09:43:57.659Z,2148
2017-02-02T09:44:57.689Z,2160
2017-02-02T09:45:57.761Z,2180
2017-02-02T09:46:57.803Z,2200
2017-02-02T09:47:57.884Z,2216
2017-02-02T09:48:57.927Z,2240
2017-02-02T09:49:57.975Z,2264
2017-02-02T09:50:58.035Z,2328
2017-02-02T09:51:58.100Z,2316
2017-02-02T09:52:58.151Z,2344
2017-02-02T09:53:58.208Z,2408
2017-02-02T09:54:58.272Z,2416
2017-02-02T09:55:58.333Z,2496
2017-02-02T09:56:58.367Z,2568
2017-02-02T09:57:58.433Z,2584
2017-02-02T09:58:58.499Z,3004
2017-02-02T09:59:58.538Z,3908
2017-02-02T10:00:58.628Z,13052
2017-02-02T10:01:58.662Z,35904
2017-02-02T10:02:58.729Z,41376
2017-02-02T10:03:58.776Z,25216
2017-02-02T10:04:58.840Z,15032
2017-02-02T10:05:58.883Z,14528
2017-02-02T10:06:58.953Z,13196
2017-02-02T10:07:58.992Z,10748
2017-02-02T10:08:59.054Z,9488
2017-02-02T10:09:59.111Z,10380
2017-02-02T10:10:59.162Z,12692
2017-02-02T10:11:59.236Z,16012
2017-02-02T10:12:59.284Z,20000
2017-02-02T10:13:59.349Z,18528
2017-02-02T10:14:59.398Z,16824
2017-02-02T10:15:59.454Z,17460
2017-02-02T10:16:59.495Z,17668
2017-02-02T10:17:59.563Z,24448
2017-02-02T10:18:59.632Z,33312
2017-02-02T10:19:59.688Z,32192
2017-02-02T10:20:59.735Z,24576
2017-02-02T10:21:59.786Z,21664
2017-02-02T10:22:59.860Z,24448
2017-02-02T10:23:59.915Z,33664
2017-02-02T10:24:59.956Z,43872
2017-02-02T10:26:00.024Z,41216
2017-02-02T10:27:00.064Z,10956
2017-02-02T10:28:00.135Z,11896
2017-02-02T10:29:00.187Z,14112
2017-02-02T10:30:00.243Z,19456
2017-02-02T10:31:00.301Z,28832
2017-02-02T10:32:00.365Z,40416
2017-02-02T10:33:00.416Z,43392
2017-02-02T10:34:00.455Z,43904
2017-02-02T10:35:00.534Z,40288
2017-02-02T10:36:00.569Z,20608
2017-02-02T10:37:00.645Z,22560
2017-02-02T10:38:00.683Z,31712
2017-02-02T10:39:00.788Z,35104
2017-02-02T10:40:00.802Z,36160
2017-02-02T10:41:00.873Z,37856
2017-02-02T10:42:00.924Z,36960
2017-02-02T10:43:00.976Z,37600
2017-02-02T10:44:01.032Z,40288
2017-02-02T10:45:01.094Z,40768
2017-02-02T10:46:01.153Z,39584
2017-02-02T10:47:01.206Z,38688
2017-02-02T10:48:01.271Z,7796
2017-02-02T10:49:01.315Z,39168
2017-02-02T10:50:01.000Z,40032
2017-02-02T10:51:01.432Z,41984
2017-02-02T10:52:01.499Z,40352
2017-02-02T10:53:01.148Z,41152
2017-02-02T10:54:01.609Z,39360
2017-02-02T10:55:01.658Z,40960
2017-02-02T10:56:01.709Z,1016
2017-02-02T10:57:01.784Z,36672
2017-02-02T10:58:01.834Z,40032
2017-02-02T10:59:01.886Z,38080
2017-02-02T11:00:01.947Z,34496
2017-02-02T11:01:02.002Z,34944
2017-02-02T11:02:02.046Z,36576
2017-02-02T11:03:02.120Z,37856
2017-02-02T11:04:02.183Z,38720
2017-02-02T11:05:02.231Z,36416
2017-02-02T11:06:02.294Z,33568
2017-02-02T11:07:02.331Z,31936
2017-02-02T11:08:02.397Z,29376
2017-02-02T11:09:02.460Z,35008
2017-02-02T11:10:02.520Z,36096
2017-02-02T11:11:02.580Z,38496
2017-02-02T11:12:02.625Z,41504
2017-02-02T11:13:02.692Z,41984
2017-02-02T11:14:02.726Z,41408
2017-02-02T11:15:02.783Z,40032
2017-02-02T11:16:02.851Z,41376
2017-02-02T11:17:02.917Z,43808
2017-02-02T11:18:02.965Z,45664
2017-02-02T11:19:03.012Z,45024
2017-02-02T11:20:03.071Z,43744
2017-02-02T11:21:03.235Z,43456
2017-02-02T11:22:03.198Z,44032
2017-02-02T11:23:03.247Z,45632
2017-02-02T11:24:03.306Z,8712
2017-02-02T11:25:03.362Z,43744
2017-02-02T11:26:03.417Z,41184
2017-02-02T11:27:03.464Z,39200
2017-02-02T11:28:03.534Z,36384
2017-02-02T11:29:03.585Z,34080
2017-02-02T11:30:03.644Z,26496
2017-02-02T11:31:03.690Z,29824
2017-02-02T11:32:03.766Z,27552
2017-02-02T11:33:03.813Z,22336
2017-02-02T11:34:03.873Z,22368
2017-02-02T11:35:03.937Z,20736
2017-02-02T11:36:03.973Z,19616
2017-02-02T11:37:04.054Z,12592
2017-02-02T11:38:04.099Z,16968
2017-02-02T11:39:04.142Z,16836
2017-02-02T11:40:04.218Z,11364
2017-02-02T11:41:04.280Z,17856
2017-02-02T11:42:04.327Z,18112
2017-02-02T11:43:04.391Z,16988
2017-02-02T11:44:04.447Z,16628
2017-02-02T11:45:04.520Z,16248
2017-02-02T11:46:04.557Z,16264
2017-02-02T11:47:04.608Z,13944
2017-02-02T11:48:04.654Z,10656
2017-02-02T11:49:04.718Z,13468
2017-02-02T11:50:04.776Z,3044
2017-02-02T11:51:04.833Z,4276
2017-02-02T11:52:04.895Z,3628
2017-02-02T11:53:04.937Z,3708
2017-02-02T11:54:05.015Z,3680
2017-02-02T11:55:05.073Z,3332
2017-02-02T11:56:05.118Z,3220
2017-02-02T11:57:05.170Z,3056
2017-02-02T11:58:05.235Z,2892
2017-02-02T11:59:05.280Z,2784
2017-02-02T12:00:05.347Z,2788
2017-02-02T12:01:05.403Z,2848
2017-02-02T12:02:05.460Z,2584
2017-02-02T12:03:05.541Z,2572
2017-02-02T12:04:05.570Z,2616
2017-02-02T12:05:05.628Z,2928
2017-02-02T12:06:05.679Z,1904
2017-02-02T12:07:05.739Z,2968
2017-02-02T12:08:05.409Z,3176
2017-02-02T12:09:05.503Z,2736
2017-02-02T12:10:05.916Z,2700
2017-02-02T12:11:05.968Z,2556
2017-02-02T12:12:06.027Z,2864
2017-02-02T12:13:06.070Z,2600
2017-02-02T12:14:06.129Z,1472
2017-02-02T12:15:05.816Z,3148
2017-02-02T12:16:06.253Z,2800
2017-02-02T12:17:06.301Z,2028
2017-02-02T12:18:06.396Z,2648
2017-02-02T12:19:06.413Z,2520
2017-02-02T12:20:06.501Z,2104
2017-02-02T12:21:06.539Z,2880
2017-02-02T12:22:06.598Z,2656
2017-02-02T12:23:06.642Z,1964
2017-02-02T12:24:06.715Z,2936
2017-02-02T12:25:06.763Z,2948
2017-02-02T12:26:06.824Z,3084
2017-02-02T12:27:06.872Z,1996
2017-02-02T12:28:06.939Z,2696
2017-02-02T12:29:07.007Z,2668
2017-02-02T12:30:07.055Z,2544
2017-02-02T12:31:06.731Z,2744
2017-02-02T12:32:06.777Z,2360
2017-02-02T12:33:07.215Z,3272
2017-02-02T12:34:07.281Z,1444
2017-02-02T12:35:07.343Z,1216
2017-02-02T12:36:07.387Z,2728
2017-02-02T12:37:07.073Z,2928
2017-02-02T12:38:07.113Z,1372
2017-02-02T12:39:07.561Z,2208
2017-02-02T12:40:07.230Z,2344
2017-02-02T12:41:07.285Z,1196
2017-02-02T12:42:07.350Z,1032
2017-02-02T12:43:07.797Z,2196
2017-02-02T12:44:07.835Z,2544
2017-02-02T12:45:07.904Z,3168
2017-02-02T12:46:07.963Z,2644
2017-02-02T12:47:08.019Z,2568
2017-02-02T12:48:08.085Z,3080
2017-02-02T12:49:08.142Z,2676
2017-02-02T12:50:07.423Z,2872
2017-02-02T12:51:08.256Z,1780
2017-02-02T12:52:08.302Z,1800
2017-02-02T12:53:08.358Z,2664
2017-02-02T12:54:08.417Z,2748
2017-02-02T12:55:08.491Z,2508
2017-02-02T12:56:08.537Z,2692
2017-02-02T12:57:08.581Z,2580
2017-02-02T12:58:08.628Z,2288
2017-02-02T12:59:08.737Z,2364
2017-02-02T13:00:08.755Z,2304
2017-02-02T13:01:08.811Z,2388
2017-02-02T13:02:08.884Z,2836
2017-02-02T13:03:08.924Z,2516
2017-02-02T13:04:08.603Z,2416
2017-02-02T13:05:09.032Z,2532
2017-02-02T13:06:09.093Z,2520
2017-02-02T13:07:09.155Z,2564
2017-02-02T13:08:09.196Z,2508
2017-02-02T13:09:08.875Z,2132
2017-02-02T13:10:08.546Z,2192
2017-02-02T13:11:09.372Z,1728
2017-02-02T13:12:09.434Z,1580
2017-02-02T13:13:09.486Z,1828
2017-02-02T13:14:09.172Z,1612
2017-02-02T13:15:09.613Z,1512
2017-02-02T13:16:09.664Z,1364
2017-02-02T13:17:09.721Z,1524
2017-02-02T13:18:09.395Z,1680
2017-02-02T13:19:09.822Z,1656
2017-02-02T13:20:09.504Z,1904
2017-02-02T13:21:09.956Z,1756
2017-02-02T13:22:09.611Z,1880
2017-02-02T13:23:10.070Z,1784
2017-02-02T13:24:10.133Z,1860
2017-02-02T13:25:10.175Z,1904
2017-02-02T13:26:10.234Z,2008
2017-02-02T13:27:10.291Z,1996
2017-02-02T13:28:09.959Z,1900
2017-02-02T13:29:09.624Z,1880
2017-02-02T13:30:10.071Z,1956
2017-02-02T13:31:10.515Z,1792
2017-02-02T13:32:10.187Z,1636
2017-02-02T13:33:10.246Z,1504
2017-02-02T13:34:09.906Z,1528
2017-02-02T13:35:10.738Z,1532
2017-02-02T13:36:10.797Z,1600
2017-02-02T13:37:10.471Z,1616
2017-02-02T13:38:10.912Z,1516
2017-02-02T13:39:10.574Z,1552
2017-02-02T13:40:11.057Z,1464
2017-02-02T13:41:11.092Z,1408
2017-02-02T13:42:10.760Z,1328
2017-02-02T13:43:10.810Z,1268
2017-02-02T13:44:10.868Z,1316
2017-02-02T13:45:11.304Z,1320
2017-02-02T13:46:11.019Z,1344
2017-02-02T13:47:11.419Z,1252
2017-02-02T13:48:11.478Z,1416
2017-02-02T13:49:11.524Z,1296
2017-02-02T13:50:10.817Z,1348
2017-02-02T13:51:11.633Z,1320
2017-02-02T13:52:11.704Z,1292
2017-02-02T13:53:11.760Z,1308
2017-02-02T13:54:11.823Z,1212
2017-02-02T13:55:11.875Z,1176
2017-02-02T13:56:11.931Z,1164
2017-02-02T13:57:11.996Z,1088
2017-02-02T13:58:12.046Z,1072
2017-02-02T13:59:12.114Z,1144
2017-02-02T14:00:11.774Z,1216